createdAt,value
2023-02-27T00:01:13.571Z,2.30
2023-02-27T00:03:41.227Z,2.30
2023-02-27T00:06:08.860Z,2.40
2023-02-27T00:08:35.979Z,2.40
2023-02-27T00:11:05.670Z,2.40
2023-02-27T00:13:33.016Z,2.30
2023-02-27T00:16:00.818Z,2.30
2023-02-27T00:18:28.622Z,2.30
2023-02-27T00:20:55.684Z,2.30
2023-02-27T00:23:22.847Z,2.30
2023-02-27T00:25:50.550Z,2.40
2023-02-27T00:28:18.965Z,2.30
2023-02-27T00:30:46.616Z,2.30
2023-02-27T00:33:14.062Z,2.30
2023-02-27T00:35:41.915Z,2.40
2023-02-27T00:38:09.573Z,2.30
2023-02-27T00:40:36.742Z,2.30
2023-02-27T00:43:04.083Z,2.30
2023-02-27T00:45:33.000Z,2.40
2023-02-27T00:48:00.606Z,2.30
2023-02-27T00:50:28.470Z,2.30
2023-02-27T00:52:56.170Z,2.30
2023-02-27T00:55:23.128Z,2.30
2023-02-27T00:57:50.663Z,2.40
2023-02-27T01:00:19.104Z,2.30
2023-02-27T01:02:47.563Z,2.40
2023-02-27T01:05:15.990Z,2.30
2023-02-27T01:07:43.075Z,2.30
2023-02-27T01:10:12.436Z,2.30
2023-02-27T01:12:40.691Z,2.30
2023-02-27T01:15:11.102Z,2.30
2023-02-27T01:17:38.340Z,2.30
2023-02-27T01:20:09.790Z,2.30
2023-02-27T01:22:37.825Z,2.30
2023-02-27T01:25:05.663Z,2.30
2023-02-27T01:27:33.233Z,2.20
2023-02-27T01:30:00.282Z,2.20
2023-02-27T01:32:28.147Z,2.30
2023-02-27T01:34:55.262Z,2.20
2023-02-27T01:37:24.120Z,2.20
2023-02-27T01:39:51.363Z,2.20
2023-02-27T01:42:22.416Z,2.20
2023-02-27T01:45:34.760Z,2.20
2023-02-27T01:48:12.480Z,2.20
2023-02-27T01:50:48.460Z,2.20
2023-02-27T01:53:19.466Z,2.20
2023-02-27T01:55:48.367Z,2.10
2023-02-27T01:58:16.550Z,2.20
2023-02-27T02:00:44.249Z,2.20
2023-02-27T02:03:23.754Z,2.20
2023-02-27T02:05:54.771Z,2.10
2023-02-27T02:08:27.407Z,2.10
2023-02-27T02:10:56.327Z,2.10
2023-02-27T02:13:24.027Z,2.10
2023-02-27T02:16:08.423Z,2.00
2023-02-27T02:22:18.517Z,2.10
2023-02-27T02:25:36.404Z,2.00
2023-02-27T02:28:21.668Z,2.10
2023-02-27T02:31:16.672Z,2.10
2023-02-27T02:34:22.681Z,2.10
2023-02-27T02:37:50.307Z,2.10
2023-02-27T02:40:29.780Z,2.10
2023-02-27T02:43:08.753Z,2.10
2023-02-27T02:45:49.696Z,2.00
2023-02-27T02:48:21.346Z,2.00
2023-02-27T02:50:55.628Z,2.00
2023-02-27T02:53:37.209Z,1.90
2023-02-27T02:56:11.907Z,1.90
2023-02-27T02:58:48.459Z,1.90
2023-02-27T03:01:21.586Z,1.90
2023-02-27T03:03:55.461Z,1.90
2023-02-27T03:06:28.021Z,1.90
2023-02-27T03:09:00.429Z,1.90
2023-02-27T03:11:36.453Z,1.90
2023-02-27T03:14:11.993Z,1.90
2023-02-27T03:16:44.033Z,1.80
2023-02-27T03:19:16.219Z,1.80
2023-02-27T03:21:49.674Z,1.70
2023-02-27T03:24:21.581Z,1.80
2023-02-27T03:26:54.375Z,1.80
2023-02-27T03:29:31.539Z,1.80
2023-02-27T03:32:05.058Z,1.70
2023-02-27T03:34:36.386Z,1.80
2023-02-27T03:37:14.259Z,1.80
2023-02-27T03:39:49.017Z,1.80
2023-02-27T03:42:29.333Z,1.80
2023-02-27T03:45:05.447Z,1.80
2023-02-27T03:47:33.977Z,1.80
2023-02-27T03:50:01.262Z,1.80
2023-02-27T03:52:30.406Z,1.80
2023-02-27T03:55:02.559Z,1.80
2023-02-27T03:57:32.388Z,1.80
2023-02-27T03:59:59.979Z,1.80
2023-02-27T04:02:31.083Z,1.80
2023-02-27T04:04:58.398Z,1.80
2023-02-27T04:07:34.851Z,1.80
2023-02-27T04:10:20.633Z,1.80
2023-02-27T04:13:22.594Z,1.70
2023-02-27T04:16:37.018Z,1.70
2023-02-27T04:19:19.066Z,1.70
2023-02-27T04:21:58.662Z,1.80
2023-02-27T04:24:36.446Z,1.70
2023-02-27T04:27:15.519Z,1.70
2023-02-27T04:29:55.616Z,1.70
2023-02-27T04:32:31.831Z,1.70
2023-02-27T04:35:02.361Z,1.70
2023-02-27T04:37:36.195Z,1.70
2023-02-27T04:40:09.397Z,1.70
2023-02-27T04:42:42.031Z,1.70
2023-02-27T04:45:15.853Z,1.60
2023-02-27T04:47:51.464Z,1.70
2023-02-27T04:50:24.643Z,1.70
2023-02-27T04:52:57.989Z,1.70
2023-02-27T04:55:30.608Z,1.70
2023-02-27T04:58:03.211Z,1.60
2023-02-27T05:03:25.614Z,1.60
2023-02-27T05:05:58.518Z,1.60
2023-02-27T05:08:34.752Z,1.60
2023-02-27T05:11:09.134Z,1.70
2023-02-27T05:13:43.115Z,1.60
2023-02-27T05:16:21.979Z,1.70
2023-02-27T05:18:49.862Z,1.60
2023-02-27T05:21:26.448Z,1.60
2023-02-27T05:24:13.883Z,1.60
2023-02-27T05:27:08.990Z,1.60
2023-02-27T05:29:47.186Z,1.60
2023-02-27T05:32:27.945Z,1.60
2023-02-27T05:35:04.154Z,1.50
2023-02-27T05:37:36.062Z,1.60
2023-02-27T05:40:08.838Z,1.50
2023-02-27T05:42:42.602Z,1.50
2023-02-27T05:45:14.353Z,1.60
2023-02-27T05:47:49.812Z,1.50
2023-02-27T05:50:21.345Z,1.60
2023-02-27T05:52:49.937Z,1.60
2023-02-27T05:55:23.157Z,1.60
2023-02-27T05:57:57.154Z,1.60
2023-02-27T06:03:16.551Z,1.50
2023-02-27T06:05:44.796Z,1.60
2023-02-27T06:08:12.493Z,1.60
2023-02-27T06:10:39.617Z,1.60
2023-02-27T06:13:07.173Z,1.60
2023-02-27T06:15:34.238Z,1.60
2023-02-27T06:18:01.326Z,1.50
2023-02-27T06:20:29.982Z,1.50
2023-02-27T06:25:45.135Z,1.50
2023-02-27T06:28:12.944Z,1.60
2023-02-27T06:30:40.251Z,1.40
2023-02-27T06:33:09.849Z,1.40
2023-02-27T06:35:38.680Z,1.40
2023-02-27T06:38:06.200Z,1.50
2023-02-27T06:40:33.295Z,1.40
2023-02-27T06:43:00.916Z,1.30
2023-02-27T06:45:29.569Z,1.30
2023-02-27T06:47:57.978Z,1.30
2023-02-27T06:50:25.598Z,1.40
2023-02-27T06:52:55.272Z,1.40
2023-02-27T06:55:23.364Z,1.40
2023-02-27T06:57:50.569Z,1.50
2023-02-27T07:00:19.483Z,1.60
2023-02-27T07:02:47.910Z,1.50
2023-02-27T07:05:15.149Z,1.50
2023-02-27T07:07:45.814Z,1.50
2023-02-27T07:10:16.654Z,1.50
2023-02-27T07:12:45.823Z,1.50
2023-02-27T07:15:13.631Z,1.50
2023-02-27T07:17:42.415Z,1.60
2023-02-27T07:20:12.194Z,1.70
2023-02-27T07:22:41.244Z,1.70
2023-02-27T07:25:09.869Z,1.70
2023-02-27T07:27:38.844Z,1.80
2023-02-27T07:30:07.793Z,1.80
2023-02-27T07:32:35.725Z,1.80
2023-02-27T07:35:04.037Z,1.80
2023-02-27T07:37:31.867Z,1.80
2023-02-27T07:39:58.844Z,1.80
2023-02-27T07:42:26.509Z,1.80
2023-02-27T07:44:54.998Z,1.90
2023-02-27T07:47:22.466Z,2.00
2023-02-27T07:49:49.829Z,2.00
2023-02-27T07:52:17.255Z,2.00
2023-02-27T07:54:45.109Z,2.00
2023-02-27T07:57:12.449Z,2.00
2023-02-27T07:59:40.160Z,1.90
2023-02-27T08:02:09.927Z,1.90
2023-02-27T08:04:38.112Z,2.00
2023-02-27T08:07:05.803Z,2.00
2023-02-27T08:09:34.037Z,2.00
2023-02-27T08:12:03.996Z,2.10
2023-02-27T08:14:31.956Z,2.10
2023-02-27T08:17:00.731Z,2.10
2023-02-27T08:19:30.484Z,2.20
2023-02-27T08:21:57.771Z,2.20
2023-02-27T08:24:29.037Z,2.30
2023-02-27T08:26:57.480Z,2.30
2023-02-27T08:29:25.499Z,2.40
2023-02-27T08:31:59.676Z,2.40
2023-02-27T08:34:34.586Z,2.40
2023-02-27T08:37:01.678Z,2.40
2023-02-27T08:39:31.464Z,2.50
2023-02-27T08:41:59.100Z,2.50
2023-02-27T08:44:26.613Z,2.60
2023-02-27T08:46:53.661Z,2.70
2023-02-27T08:49:22.934Z,2.80
2023-02-27T08:51:53.703Z,2.80
2023-02-27T08:54:20.862Z,2.90
2023-02-27T08:56:48.353Z,2.90
2023-02-27T08:59:16.058Z,2.90
2023-02-27T09:01:43.974Z,2.90
2023-02-27T09:04:11.695Z,2.90
2023-02-27T09:06:39.223Z,2.90
2023-02-27T09:09:08.104Z,3.00
2023-02-27T09:11:37.435Z,3.10
2023-02-27T09:14:06.406Z,3.10
2023-02-27T09:16:33.795Z,3.00
2023-02-27T09:19:07.196Z,3.10
2023-02-27T09:21:34.914Z,3.10
2023-02-27T09:24:17.222Z,3.10
2023-02-27T09:26:48.436Z,3.20
2023-02-27T09:29:16.621Z,3.20
2023-02-27T09:31:44.263Z,3.20
2023-02-27T09:34:11.832Z,3.30
2023-02-27T09:36:38.919Z,3.40
2023-02-27T09:39:05.962Z,3.40
2023-02-27T09:41:50.206Z,3.40
2023-02-27T09:44:44.901Z,3.50
2023-02-27T09:47:23.596Z,3.60
2023-02-27T09:50:01.596Z,3.70
2023-02-27T09:52:31.807Z,3.70
2023-02-27T09:54:59.381Z,3.70
2023-02-27T09:57:44.462Z,3.70
2023-02-27T10:00:35.133Z,3.80
2023-02-27T10:03:22.554Z,3.90
2023-02-27T10:06:07.062Z,3.80
2023-02-27T10:08:41.670Z,3.70
2023-02-27T10:11:16.316Z,3.70
2023-02-27T10:13:59.022Z,3.70
2023-02-27T10:16:27.960Z,3.80
2023-02-27T10:18:59.446Z,3.80
2023-02-27T10:21:34.444Z,3.80
2023-02-27T10:24:12.487Z,3.60
2023-02-27T10:26:44.139Z,3.70
2023-02-27T10:29:28.254Z,3.80
2023-02-27T10:32:04.128Z,3.90
2023-02-27T10:37:25.034Z,4.10
2023-02-27T10:39:58.910Z,4.10
2023-02-27T10:42:31.110Z,4.10
2023-02-27T10:45:00.049Z,4.00
2023-02-27T10:47:27.721Z,4.00
2023-02-27T10:49:56.027Z,4.00
2023-02-27T10:52:23.073Z,4.00
2023-02-27T10:54:50.835Z,4.00
2023-02-27T10:57:26.578Z,4.10
2023-02-27T10:59:57.179Z,4.20
2023-02-27T11:02:31.505Z,4.30
2023-02-27T11:05:01.027Z,4.30
2023-02-27T11:07:35.730Z,4.30
2023-02-27T11:10:17.543Z,4.30
2023-02-27T11:13:04.073Z,4.50
2023-02-27T11:15:33.996Z,4.50
2023-02-27T11:18:27.122Z,4.50
2023-02-27T11:21:19.409Z,4.60
2023-02-27T11:23:56.582Z,4.60
2023-02-27T11:26:28.717Z,4.70
2023-02-27T11:29:16.152Z,4.70
2023-02-27T11:31:53.493Z,4.70
2023-02-27T11:34:27.399Z,4.60
2023-02-27T11:37:01.376Z,4.60
2023-02-27T11:39:38.584Z,4.60
2023-02-27T11:42:17.586Z,4.60
2023-02-27T11:44:58.046Z,4.70
2023-02-27T11:47:30.354Z,4.80
2023-02-27T11:50:31.980Z,4.90
2023-02-27T11:53:20.808Z,5.00
2023-02-27T11:55:53.877Z,5.10
2023-02-27T11:58:29.877Z,5.20
2023-02-27T12:01:01.748Z,5.20
2023-02-27T12:03:41.384Z,5.20
2023-02-27T12:06:19.596Z,5.10
2023-02-27T12:08:54.697Z,5.10
2023-02-27T12:11:32.524Z,5.10
2023-02-27T12:14:06.781Z,5.10
2023-02-27T12:16:41.175Z,5.10
2023-02-27T12:19:18.783Z,5.20
2023-02-27T12:21:52.823Z,5.20
2023-02-27T12:24:24.685Z,5.20
2023-02-27T12:27:16.954Z,5.20
2023-02-27T12:29:52.811Z,5.20
2023-02-27T12:32:26.423Z,5.20
2023-02-27T12:35:03.309Z,5.20
2023-02-27T12:37:37.681Z,5.20
2023-02-27T12:40:15.126Z,5.20
2023-02-27T12:43:21.230Z,5.30
2023-02-27T12:46:05.225Z,5.30
2023-02-27T12:48:54.277Z,5.30
2023-02-27T12:51:43.812Z,5.40
2023-02-27T12:54:30.736Z,5.40
2023-02-27T12:57:13.497Z,5.50
2023-02-27T13:00:09.657Z,5.50
2023-02-27T13:03:02.863Z,5.40
2023-02-27T13:05:53.918Z,5.30
2023-02-27T13:09:01.273Z,5.30
2023-02-27T13:11:47.223Z,5.40
2023-02-27T13:14:31.055Z,5.50
2023-02-27T13:17:05.192Z,5.70
2023-02-27T13:19:38.955Z,5.70
2023-02-27T13:22:17.775Z,5.80
2023-02-27T13:24:49.596Z,5.90
2023-02-27T13:27:25.098Z,5.90
2023-02-27T13:30:08.822Z,6.00
2023-02-27T13:32:44.756Z,5.90
2023-02-27T13:35:28.162Z,5.80
2023-02-27T13:40:42.440Z,5.80
2023-02-27T13:46:23.616Z,5.80
2023-02-27T13:48:55.062Z,5.80
2023-02-27T13:51:49.287Z,5.70
2023-02-27T13:54:24.833Z,5.70
2023-02-27T13:57:09.367Z,5.70
2023-02-27T13:59:40.033Z,5.70
2023-02-27T14:02:57.747Z,5.70
2023-02-27T14:05:31.376Z,5.60
2023-02-27T14:08:09.022Z,5.60
2023-02-27T14:10:38.379Z,5.60
2023-02-27T14:13:07.339Z,5.50
2023-02-27T14:15:56.504Z,5.50
2023-02-27T14:18:58.821Z,5.50
2023-02-27T14:21:58.843Z,5.50
2023-02-27T14:24:36.267Z,5.50
2023-02-27T14:27:05.622Z,5.50
2023-02-27T14:29:35.144Z,5.60
2023-02-27T14:32:08.281Z,5.70
2023-02-27T14:34:40.633Z,5.80
2023-02-27T14:37:14.418Z,5.90
2023-02-27T14:39:42.177Z,6.00
2023-02-27T14:42:32.962Z,6.00
2023-02-27T14:45:00.469Z,6.10
2023-02-27T14:47:32.116Z,6.10
2023-02-27T14:50:03.029Z,6.10
2023-02-27T14:52:33.010Z,6.00
2023-02-27T14:55:19.575Z,6.00
2023-02-27T14:57:56.577Z,6.10
2023-02-27T15:00:36.683Z,6.10
2023-02-27T15:03:19.019Z,6.10
2023-02-27T15:05:48.269Z,6.00
2023-02-27T15:08:21.534Z,6.00
2023-02-27T15:10:49.278Z,6.00
2023-02-27T15:13:30.943Z,6.00
2023-02-27T15:16:21.882Z,6.00
2023-02-27T15:18:52.278Z,6.00
2023-02-27T15:21:24.541Z,6.00
2023-02-27T15:23:56.126Z,6.00
2023-02-27T15:26:25.998Z,5.90
2023-02-27T15:28:53.948Z,5.90
2023-02-27T15:31:24.166Z,5.90
2023-02-27T15:33:52.080Z,5.90
2023-02-27T15:36:24.433Z,5.80
2023-02-27T15:39:16.558Z,5.80
2023-02-27T15:41:48.571Z,5.70
2023-02-27T15:44:17.701Z,5.70
2023-02-27T15:46:46.465Z,5.60
2023-02-27T15:49:20.030Z,5.60
2023-02-27T15:51:58.258Z,5.60
2023-02-27T15:54:26.061Z,5.60
2023-02-27T15:56:53.938Z,5.70
2023-02-27T16:02:13.266Z,5.70
2023-02-27T16:04:40.755Z,5.70
2023-02-27T16:07:18.222Z,5.60
2023-02-27T16:09:51.657Z,5.60
2023-02-27T16:12:29.598Z,5.60
2023-02-27T16:15:26.728Z,5.50
2023-02-27T16:18:01.236Z,5.40
2023-02-27T16:20:42.393Z,5.50
2023-02-27T16:23:22.104Z,5.40
2023-02-27T16:26:07.384Z,5.30
2023-02-27T16:28:40.998Z,5.30
2023-02-27T16:31:24.090Z,5.30
2023-02-27T16:33:51.724Z,5.30
2023-02-27T16:36:21.605Z,5.30
2023-02-27T16:38:50.273Z,5.30
2023-02-27T16:41:19.874Z,5.30
2023-02-27T16:43:48.891Z,5.30
2023-02-27T16:46:21.946Z,5.30
2023-02-27T16:48:51.627Z,5.30
2023-02-27T16:51:23.807Z,5.30
2023-02-27T16:53:54.256Z,5.30
2023-02-27T16:56:35.846Z,5.20
2023-02-27T16:59:05.059Z,5.20
2023-02-27T17:01:34.169Z,5.10
2023-02-27T17:04:02.170Z,5.10
2023-02-27T17:06:30.138Z,5.10
2023-02-27T17:08:59.141Z,5.10
2023-02-27T17:11:26.244Z,5.10
2023-02-27T17:13:53.874Z,5.00
2023-02-27T17:16:21.451Z,5.00
2023-02-27T17:18:48.431Z,5.00
2023-02-27T17:21:15.938Z,5.00
2023-02-27T17:23:42.930Z,5.00
2023-02-27T17:26:11.674Z,5.00
2023-02-27T17:28:38.922Z,5.00
2023-02-27T17:31:09.171Z,5.00
2023-02-27T17:33:36.175Z,5.00
2023-02-27T17:36:04.824Z,5.00
2023-02-27T17:38:32.409Z,4.90
2023-02-27T17:40:59.477Z,4.90
2023-02-27T17:43:27.853Z,4.90
2023-02-27T17:45:55.309Z,4.80
2023-02-27T17:48:22.754Z,4.80
2023-02-27T17:50:49.834Z,4.80
2023-02-27T17:53:17.275Z,4.90
2023-02-27T17:55:44.414Z,4.90
2023-02-27T17:58:11.404Z,4.80
2023-02-27T18:00:40.070Z,4.90
2023-02-27T18:03:07.694Z,4.90
2023-02-27T18:05:34.697Z,4.90
2023-02-27T18:08:02.339Z,4.80
2023-02-27T18:10:29.360Z,4.90
2023-02-27T18:12:56.579Z,4.80
2023-02-27T18:15:24.064Z,4.80
2023-02-27T18:17:52.549Z,4.80
2023-02-27T18:20:19.751Z,4.80
2023-02-27T18:22:46.915Z,4.80
2023-02-27T18:25:15.832Z,4.70
2023-02-27T18:27:43.583Z,4.70
2023-02-27T18:30:13.481Z,4.70
2023-02-27T18:32:40.469Z,4.60
2023-02-27T18:35:10.487Z,4.60
2023-02-27T18:37:38.015Z,4.60
2023-02-27T18:40:06.947Z,4.50
2023-02-27T18:42:34.916Z,4.50
2023-02-27T18:45:02.024Z,4.50
2023-02-27T18:47:30.493Z,4.50
2023-02-27T18:49:57.905Z,4.40
2023-02-27T18:52:28.739Z,4.40
2023-02-27T18:54:55.871Z,4.40
2023-02-27T18:57:23.225Z,4.40
2023-02-27T18:59:50.170Z,4.40
2023-02-27T19:02:21.862Z,4.40
2023-02-27T19:04:49.261Z,4.40
2023-02-27T19:07:17.298Z,4.40
2023-02-27T19:09:46.066Z,4.40
2023-02-27T19:12:13.365Z,4.30
2023-02-27T19:14:40.973Z,4.40
2023-02-27T19:17:08.850Z,4.40
2023-02-27T19:19:36.175Z,4.40
2023-02-27T19:22:03.314Z,4.40
2023-02-27T19:24:30.643Z,4.30
2023-02-27T19:26:59.123Z,4.30
2023-02-27T19:29:26.175Z,4.20
2023-02-27T19:31:53.698Z,4.30
2023-02-27T19:34:20.841Z,4.30
2023-02-27T19:36:47.992Z,4.30
2023-02-27T19:39:15.082Z,4.30
2023-02-27T19:41:42.301Z,4.20
2023-02-27T19:44:11.816Z,4.20
2023-02-27T19:46:41.167Z,4.30
2023-02-27T19:49:08.520Z,4.20
2023-02-27T19:51:35.582Z,4.20
2023-02-27T19:54:02.803Z,4.20
2023-02-27T19:56:30.934Z,4.10
2023-02-27T19:59:01.176Z,4.10
2023-02-27T20:01:32.495Z,4.10
2023-02-27T20:04:00.357Z,4.10
2023-02-27T20:06:31.657Z,4.10
2023-02-27T20:08:59.908Z,4.00
2023-02-27T20:11:29.605Z,4.00
2023-02-27T20:13:57.469Z,4.00
2023-02-27T20:16:27.865Z,4.10
2023-02-27T20:18:57.193Z,4.00
2023-02-27T20:21:26.803Z,4.00
2023-02-27T20:23:55.384Z,4.00
2023-02-27T20:26:26.304Z,4.10
2023-02-27T20:28:57.307Z,4.00
2023-02-27T20:31:28.242Z,4.10
2023-02-27T20:33:57.839Z,4.00
2023-02-27T20:36:25.859Z,4.00
2023-02-27T20:38:52.887Z,4.10
2023-02-27T20:41:22.657Z,4.00
2023-02-27T20:43:50.337Z,4.00
2023-02-27T20:46:21.493Z,4.00
2023-02-27T20:48:48.798Z,4.00
2023-02-27T20:51:20.404Z,4.00
2023-02-27T20:53:50.060Z,4.00
2023-02-27T20:56:20.723Z,4.00
2023-02-27T20:58:48.570Z,4.00
2023-02-27T21:01:17.436Z,3.90
2023-02-27T21:03:46.590Z,4.00
2023-02-27T21:06:16.815Z,4.00
2023-02-27T21:08:47.501Z,4.00
2023-02-27T21:11:18.103Z,3.90
2023-02-27T21:13:47.314Z,4.00
2023-02-27T21:16:16.479Z,4.00
2023-02-27T21:18:44.817Z,4.00
2023-02-27T21:21:16.445Z,4.00
2023-02-27T21:23:44.813Z,4.00
2023-02-27T21:26:19.246Z,4.10
2023-02-27T21:28:52.056Z,4.10
2023-02-27T21:31:23.270Z,4.10
2023-02-27T21:33:52.195Z,4.00
2023-02-27T21:36:25.997Z,4.00
2023-02-27T21:38:58.805Z,4.00
2023-02-27T21:41:26.923Z,3.90
2023-02-27T21:43:59.163Z,3.90
2023-02-27T21:46:27.131Z,3.90
2023-02-27T21:48:54.729Z,3.90
2023-02-27T21:51:38.308Z,3.80
2023-02-27T21:54:11.025Z,3.80
2023-02-27T21:56:38.687Z,3.80
2023-02-27T22:01:51.106Z,3.80
2023-02-27T22:04:20.038Z,3.70
2023-02-27T22:06:48.865Z,3.70
2023-02-27T22:09:18.131Z,3.80
2023-02-27T22:11:45.902Z,3.80
2023-02-27T22:14:13.616Z,3.70
2023-02-27T22:16:41.054Z,3.70
2023-02-27T22:19:10.972Z,3.70
2023-02-27T22:21:39.228Z,3.60
2023-02-27T22:24:08.399Z,3.60
2023-02-27T22:26:37.844Z,3.60
2023-02-27T22:29:06.344Z,3.60
2023-02-27T22:31:36.538Z,3.60
2023-02-27T22:34:07.966Z,3.60
2023-02-27T22:36:36.383Z,3.50
2023-02-27T22:39:04.773Z,3.50
2023-02-27T22:41:37.139Z,3.40
2023-02-27T22:44:04.988Z,3.40
2023-02-27T22:46:34.342Z,3.40
2023-02-27T22:49:05.388Z,3.50
2023-02-27T22:51:32.690Z,3.40
2023-02-27T22:54:03.489Z,3.40
2023-02-27T22:56:31.666Z,3.30
2023-02-27T22:59:00.759Z,3.30
2023-02-27T23:01:31.069Z,3.30
2023-02-27T23:04:01.265Z,3.30
2023-02-27T23:06:33.199Z,3.30
2023-02-27T23:09:01.667Z,3.30
2023-02-27T23:11:29.243Z,3.20
2023-02-27T23:13:56.539Z,3.20
2023-02-27T23:16:25.666Z,3.10
2023-02-27T23:18:56.281Z,3.10
2023-02-27T23:21:27.036Z,3.10
2023-02-27T23:23:54.402Z,3.10
2023-02-27T23:26:21.446Z,3.20
2023-02-27T23:28:48.987Z,3.20
2023-02-27T23:31:16.009Z,3.10
2023-02-27T23:33:44.857Z,3.20
2023-02-27T23:36:12.377Z,3.20
2023-02-27T23:38:39.633Z,3.20
2023-02-27T23:41:08.199Z,3.20
2023-02-27T23:43:35.842Z,3.20
2023-02-27T23:46:07.314Z,3.30
2023-02-27T23:48:34.867Z,3.20
2023-02-27T23:51:06.005Z,3.20
2023-02-27T23:53:34.445Z,3.20
2023-02-27T23:56:01.836Z,3.20
2023-02-27T23:58:29.082Z,3.20
